sensor_id;sensor_type;location;lat;lon;timestamp;temperature;humidity
75010;DHT22;63564;46.840;18.336;2022-10-14T00:01:32;9.74;90.51
75010;DHT22;63564;46.840;18.336;2022-10-14T00:04:32;9.68;90.92
75010;DHT22;63564;46.840;18.336;2022-10-14T00:07:32;9.62;90.38
75010;DHT22;63564;46.840;18.336;2022-10-14T00:10:36;9.78;89.64
75010;DHT22;63564;46.840;18.336;2022-10-14T00:13:37;9.93;88.11
75010;DHT22;63564;46.840;18.336;2022-10-14T00:16:40;9.79;88.68
75010;DHT22;63564;46.840;18.336;2022-10-14T00:19:40;9.89;88.43
75010;DHT22;63564;46.840;18.336;2022-10-14T00:22:41;9.99;87.73
75010;DHT22;63564;46.840;18.336;2022-10-14T00:25:41;10.06;87.60
75010;DHT22;63564;46.840;18.336;2022-10-14T00:28:42;9.83;88.42
75010;DHT22;63564;46.840;18.336;2022-10-14T00:31:42;9.76;89.11
75010;DHT22;63564;46.840;18.336;2022-10-14T00:34:42;9.96;87.29
75010;DHT22;63564;46.840;18.336;2022-10-14T00:37:43;9.78;88.49
75010;DHT22;63564;46.840;18.336;2022-10-14T00:40:43;9.74;89.01
75010;DHT22;63564;46.840;18.336;2022-10-14T00:47:09;9.90;87.44
75010;DHT22;63564;46.840;18.336;2022-10-14T00:50:11;9.96;87.34
75010;DHT22;63564;46.840;18.336;2022-10-14T00:53:13;9.93;87.81
75010;DHT22;63564;46.840;18.336;2022-10-14T00:56:16;9.78;89.17
75010;DHT22;63564;46.840;18.336;2022-10-14T00:59:21;9.61;89.66
75010;DHT22;63564;46.840;18.336;2022-10-14T01:02:21;9.51;90.07
75010;DHT22;63564;46.840;18.336;2022-10-14T01:05:23;9.44;90.15
75010;DHT22;63564;46.840;18.336;2022-10-14T01:08:36;9.47;89.66
75010;DHT22;63564;46.840;18.336;2022-10-14T01:18:56;9.31;91.02
75010;DHT22;63564;46.840;18.336;2022-10-14T01:22:13;9.24;91.66
75010;DHT22;63564;46.840;18.336;2022-10-14T01:25:41;9.11;91.46
75010;DHT22;63564;46.840;18.336;2022-10-14T01:32:25;9.49;89.03
75010;DHT22;63564;46.840;18.336;2022-10-14T01:39:04;9.10;91.28
75010;DHT22;63564;46.840;18.336;2022-10-14T01:42:15;9.09;91.20
75010;DHT22;63564;46.840;18.336;2022-10-14T01:45:19;9.17;90.89
75010;DHT22;63564;46.840;18.336;2022-10-14T01:48:23;9.16;91.20
75010;DHT22;63564;46.840;18.336;2022-10-14T01:51:30;9.09;91.82
75010;DHT22;63564;46.840;18.336;2022-10-14T01:54:36;9.10;91.45
75010;DHT22;63564;46.840;18.336;2022-10-14T01:57:38;9.28;90.99
75010;DHT22;63564;46.840;18.336;2022-10-14T02:00:40;9.37;89.88
75010;DHT22;63564;46.840;18.336;2022-10-14T02:03:42;9.32;89.89
75010;DHT22;63564;46.840;18.336;2022-10-14T02:07:03;9.32;90.35
75010;DHT22;63564;46.840;18.336;2022-10-14T02:16:41;9.38;89.63
75010;DHT22;63564;46.840;18.336;2022-10-14T02:19:58;9.23;90.67
75010;DHT22;63564;46.840;18.336;2022-10-14T02:23:12;9.28;90.22
75010;DHT22;63564;46.840;18.336;2022-10-14T02:26:14;9.23;90.21
75010;DHT22;63564;46.840;18.336;2022-10-14T02:29:17;9.19;90.39
75010;DHT22;63564;46.840;18.336;2022-10-14T02:32:19;9.14;91.20
75010;DHT22;63564;46.840;18.336;2022-10-14T02:35:22;9.11;91.15
75010;DHT22;63564;46.840;18.336;2022-10-14T02:38:24;9.09;91.50
75010;DHT22;63564;46.840;18.336;2022-10-14T02:41:30;9.17;91.01
75010;DHT22;63564;46.840;18.336;2022-10-14T02:44:32;9.19;91.21
75010;DHT22;63564;46.840;18.336;2022-10-14T02:47:33;9.24;91.20
75010;DHT22;63564;46.840;18.336;2022-10-14T02:50:33;9.19;91.52
75010;DHT22;63564;46.840;18.336;2022-10-14T02:53:34;9.11;91.90
75010;DHT22;63564;46.840;18.336;2022-10-14T02:56:34;9.00;92.16
75010;DHT22;63564;46.840;18.336;2022-10-14T02:59:35;8.96;91.95
75010;DHT22;63564;46.840;18.336;2022-10-14T03:02:35;8.97;92.08
75010;DHT22;63564;46.840;18.336;2022-10-14T03:05:35;8.96;91.88
75010;DHT22;63564;46.840;18.336;2022-10-14T03:08:36;8.87;91.75
75010;DHT22;63564;46.840;18.336;2022-10-14T03:11:36;8.96;90.97
75010;DHT22;63564;46.840;18.336;2022-10-14T03:14:36;8.76;92.49
75010;DHT22;63564;46.840;18.336;2022-10-14T03:17:37;8.62;92.80
75010;DHT22;63564;46.840;18.336;2022-10-14T03:20:37;8.52;93.36
75010;DHT22;63564;46.840;18.336;2022-10-14T03:23:37;8.48;94.03
75010;DHT22;63564;46.840;18.336;2022-10-14T03:26:38;7.94;93.28
75010;DHT22;63564;46.840;18.336;2022-10-14T03:29:38;7.83;93.97
75010;DHT22;63564;46.840;18.336;2022-10-14T03:32:39;7.96;93.97
75010;DHT22;63564;46.840;18.336;2022-10-14T03:35:40;8.06;94.61
75010;DHT22;63564;46.840;18.336;2022-10-14T03:38:41;8.06;94.22
75010;DHT22;63564;46.840;18.336;2022-10-14T03:41:41;8.06;94.24
75010;DHT22;63564;46.840;18.336;2022-10-14T03:44:41;8.07;94.25
75010;DHT22;63564;46.840;18.336;2022-10-14T03:47:42;8.07;94.03
75010;DHT22;63564;46.840;18.336;2022-10-14T03:50:42;8.04;94.32
75010;DHT22;63564;46.840;18.336;2022-10-14T03:53:43;8.13;94.56
75010;DHT22;63564;46.840;18.336;2022-10-14T03:56:43;8.23;94.49
75010;DHT22;63564;46.840;18.336;2022-10-14T03:59:43;8.17;94.21
75010;DHT22;63564;46.840;18.336;2022-10-14T04:02:44;8.10;94.54
75010;DHT22;63564;46.840;18.336;2022-10-14T04:05:44;8.24;93.32
75010;DHT22;63564;46.840;18.336;2022-10-14T04:08:44;8.23;93.18
75010;DHT22;63564;46.840;18.336;2022-10-14T04:11:45;8.28;92.04
75010;DHT22;63564;46.840;18.336;2022-10-14T04:14:45;8.24;92.13
75010;DHT22;63564;46.840;18.336;2022-10-14T04:17:45;8.20;92.60
75010;DHT22;63564;46.840;18.336;2022-10-14T04:20:46;8.11;92.76
75010;DHT22;63564;46.840;18.336;2022-10-14T04:23:46;8.00;93.22
75010;DHT22;63564;46.840;18.336;2022-10-14T04:26:49;8.13;93.34
75010;DHT22;63564;46.840;18.336;2022-10-14T04:29:50;7.94;94.31
75010;DHT22;63564;46.840;18.336;2022-10-14T04:32:51;7.90;94.67
75010;DHT22;63564;46.840;18.336;2022-10-14T04:35:59;7.91;94.72
75010;DHT22;63564;46.840;18.336;2022-10-14T04:39:00;7.94;94.45
75010;DHT22;63564;46.840;18.336;2022-10-14T04:42:00;7.98;94.77
75010;DHT22;63564;46.840;18.336;2022-10-14T04:45:00;8.01;93.78
75010;DHT22;63564;46.840;18.336;2022-10-14T04:48:01;8.00;93.83
75010;DHT22;63564;46.840;18.336;2022-10-14T04:51:01;8.04;94.00
75010;DHT22;63564;46.840;18.336;2022-10-14T04:54:01;8.00;94.01
75010;DHT22;63564;46.840;18.336;2022-10-14T04:57:02;8.00;94.12
75010;DHT22;63564;46.840;18.336;2022-10-14T05:00:03;8.08;93.03
75010;DHT22;63564;46.840;18.336;2022-10-14T05:03:04;7.98;93.61
75010;DHT22;63564;46.840;18.336;2022-10-14T05:06:04;8.06;93.90
75010;DHT22;63564;46.840;18.336;2022-10-14T05:09:05;7.59;94.84
75010;DHT22;63564;46.840;18.336;2022-10-14T05:12:06;7.34;95.10
75010;DHT22;63564;46.840;18.336;2022-10-14T05:15:08;7.11;95.32
75010;DHT22;63564;46.840;18.336;2022-10-14T05:18:11;7.35;95.44
75010;DHT22;63564;46.840;18.336;2022-10-14T05:21:11;7.52;95.01
75010;DHT22;63564;46.840;18.336;2022-10-14T05:24:12;7.22;93.52
75010;DHT22;63564;46.840;18.336;2022-10-14T05:27:12;6.97;94.44
75010;DHT22;63564;46.840;18.336;2022-10-14T05:30:13;7.01;94.76
75010;DHT22;63564;46.840;18.336;2022-10-14T05:33:13;7.04;94.87
75010;DHT22;63564;46.840;18.336;2022-10-14T05:36:13;7.18;94.21
75010;DHT22;63564;46.840;18.336;2022-10-14T05:39:14;6.94;94.47
75010;DHT22;63564;46.840;18.336;2022-10-14T05:42:14;6.96;94.68
75010;DHT22;63564;46.840;18.336;2022-10-14T05:45:15;7.38;92.86
75010;DHT22;63564;46.840;18.336;2022-10-14T05:48:16;7.54;93.60
75010;DHT22;63564;46.840;18.336;2022-10-14T05:51:16;7.52;94.53
75010;DHT22;63564;46.840;18.336;2022-10-14T05:54:20;7.94;96.09
75010;DHT22;63564;46.840;18.336;2022-10-14T05:57:20;7.97;94.27
75010;DHT22;63564;46.840;18.336;2022-10-14T06:00:21;8.08;93.79
75010;DHT22;63564;46.840;18.336;2022-10-14T06:03:21;8.17;93.84
75010;DHT22;63564;46.840;18.336;2022-10-14T06:06:21;8.21;94.00
75010;DHT22;63564;46.840;18.336;2022-10-14T06:09:22;8.27;95.37
75010;DHT22;63564;46.840;18.336;2022-10-14T06:12:22;8.49;94.47
75010;DHT22;63564;46.840;18.336;2022-10-14T06:15:22;8.56;94.00
75010;DHT22;63564;46.840;18.336;2022-10-14T06:18:23;8.62;94.98
75010;DHT22;63564;46.840;18.336;2022-10-14T06:21:23;8.82;95.45
75010;DHT22;63564;46.840;18.336;2022-10-14T06:24:24;9.04;95.61
75010;DHT22;63564;46.840;18.336;2022-10-14T06:27:24;9.24;94.38
75010;DHT22;63564;46.840;18.336;2022-10-14T06:30:24;9.38;93.81
75010;DHT22;63564;46.840;18.336;2022-10-14T06:33:27;9.51;93.23
75010;DHT22;63564;46.840;18.336;2022-10-14T06:36:28;9.58;92.99
75010;DHT22;63564;46.840;18.336;2022-10-14T06:39:28;9.78;92.33
75010;DHT22;63564;46.840;18.336;2022-10-14T06:42:28;9.83;92.17
75010;DHT22;63564;46.840;18.336;2022-10-14T06:45:29;9.86;92.15
75010;DHT22;63564;46.840;18.336;2022-10-14T06:48:30;9.97;91.71
75010;DHT22;63564;46.840;18.336;2022-10-14T06:51:30;10.09;91.82
75010;DHT22;63564;46.840;18.336;2022-10-14T06:54:30;10.18;91.05
75010;DHT22;63564;46.840;18.336;2022-10-14T06:57:31;10.27;90.72
75010;DHT22;63564;46.840;18.336;2022-10-14T07:00:31;10.57;91.32
75010;DHT22;63564;46.840;18.336;2022-10-14T07:03:38;10.71;89.53
75010;DHT22;63564;46.840;18.336;2022-10-14T07:06:38;11.15;93.24
75010;DHT22;63564;46.840;18.336;2022-10-14T07:09:38;11.03;87.71
75010;DHT22;63564;46.840;18.336;2022-10-14T07:12:42;11.13;88.15
75010;DHT22;63564;46.840;18.336;2022-10-14T07:15:48;11.43;87.83
75010;DHT22;63564;46.840;18.336;2022-10-14T07:18:49;11.43;87.15
75010;DHT22;63564;46.840;18.336;2022-10-14T07:21:49;11.53;86.80
75010;DHT22;63564;46.840;18.336;2022-10-14T07:24:49;11.75;87.28
75010;DHT22;63564;46.840;18.336;2022-10-14T07:27:52;11.67;86.01
75010;DHT22;63564;46.840;18.336;2022-10-14T07:31:01;12.02;85.05
75010;DHT22;63564;46.840;18.336;2022-10-14T07:34:02;12.11;83.53
75010;DHT22;63564;46.840;18.336;2022-10-14T07:37:03;12.20;83.54
75010;DHT22;63564;46.840;18.336;2022-10-14T07:40:03;12.15;84.47
75010;DHT22;63564;46.840;18.336;2022-10-14T07:43:05;12.60;84.05
75010;DHT22;63564;46.840;18.336;2022-10-14T07:46:05;12.98;84.80
75010;DHT22;63564;46.840;18.336;2022-10-14T07:52:13;13.22;82.91
75010;DHT22;63564;46.840;18.336;2022-10-14T07:55:14;13.20;82.17
75010;DHT22;63564;46.840;18.336;2022-10-14T07:58:15;13.20;81.10
75010;DHT22;63564;46.840;18.336;2022-10-14T08:01:15;13.25;79.79
75010;DHT22;63564;46.840;18.336;2022-10-14T08:04:18;13.64;81.72
75010;DHT22;63564;46.840;18.336;2022-10-14T08:07:21;13.74;81.21
75010;DHT22;63564;46.840;18.336;2022-10-14T08:10:21;13.88;79.72
75010;DHT22;63564;46.840;18.336;2022-10-14T08:13:21;13.88;80.36
75010;DHT22;63564;46.840;18.336;2022-10-14T08:16:24;13.74;79.62
75010;DHT22;63564;46.840;18.336;2022-10-14T08:19:25;13.87;79.29
75010;DHT22;63564;46.840;18.336;2022-10-14T08:22:25;14.14;78.74
75010;DHT22;63564;46.840;18.336;2022-10-14T08:25:26;14.17;77.91
75010;DHT22;63564;46.840;18.336;2022-10-14T08:28:26;14.17;77.85
75010;DHT22;63564;46.840;18.336;2022-10-14T08:31:27;14.81;77.26
75010;DHT22;63564;46.840;18.336;2022-10-14T08:34:28;14.97;75.86
75010;DHT22;63564;46.840;18.336;2022-10-14T08:37:28;14.63;77.30
75010;DHT22;63564;46.840;18.336;2022-10-14T08:40:41;14.59;78.56
75010;DHT22;63564;46.840;18.336;2022-10-14T08:47:01;15.39;79.72
75010;DHT22;63564;46.840;18.336;2022-10-14T08:50:22;15.59;74.97
75010;DHT22;63564;46.840;18.336;2022-10-14T08:53:36;15.83;76.50
75010;DHT22;63564;46.840;18.336;2022-10-14T08:56:40;15.46;75.94
75010;DHT22;63564;46.840;18.336;2022-10-14T08:59:42;15.65;77.31
75010;DHT22;63564;46.840;18.336;2022-10-14T09:02:47;15.89;76.33
75010;DHT22;63564;46.840;18.336;2022-10-14T09:06:01;15.76;76.38
75010;DHT22;63564;46.840;18.336;2022-10-14T09:09:10;15.83;76.33
75010;DHT22;63564;46.840;18.336;2022-10-14T09:12:14;15.83;77.19
75010;DHT22;63564;46.840;18.336;2022-10-14T09:15:21;15.94;75.20
75010;DHT22;63564;46.840;18.336;2022-10-14T09:18:31;16.22;76.15
75010;DHT22;63564;46.840;18.336;2022-10-14T09:21:40;16.34;74.43
75010;DHT22;63564;46.840;18.336;2022-10-14T09:24:46;16.49;74.60
75010;DHT22;63564;46.840;18.336;2022-10-14T09:27:48;16.69;74.56
75010;DHT22;63564;46.840;18.336;2022-10-14T09:30:49;16.65;73.90
75010;DHT22;63564;46.840;18.336;2022-10-14T09:33:50;16.42;74.54
75010;DHT22;63564;46.840;18.336;2022-10-14T09:36:50;16.68;73.56
75010;DHT22;63564;46.840;18.336;2022-10-14T09:39:55;17.02;75.96
75010;DHT22;63564;46.840;18.336;2022-10-14T09:49:01;16.93;73.29
75010;DHT22;63564;46.840;18.336;2022-10-14T09:52:02;17.03;72.63
75010;DHT22;63564;46.840;18.336;2022-10-14T09:55:04;17.16;72.21
75010;DHT22;63564;46.840;18.336;2022-10-14T09:58:13;17.21;72.21
75010;DHT22;63564;46.840;18.336;2022-10-14T10:01:18;17.23;71.77
75010;DHT22;63564;46.840;18.336;2022-10-14T10:04:24;17.27;72.25
75010;DHT22;63564;46.840;18.336;2022-10-14T10:07:33;17.51;72.32
75010;DHT22;63564;46.840;18.336;2022-10-14T10:10:34;17.59;71.51
75010;DHT22;63564;46.840;18.336;2022-10-14T10:13:37;17.76;71.41
75010;DHT22;63564;46.840;18.336;2022-10-14T10:16:44;17.72;72.67
75010;DHT22;63564;46.840;18.336;2022-10-14T10:19:48;18.12;73.57
75010;DHT22;63564;46.840;18.336;2022-10-14T10:22:52;18.45;70.77
75010;DHT22;63564;46.840;18.336;2022-10-14T10:25:52;18.43;68.85
75010;DHT22;63564;46.840;18.336;2022-10-14T10:28:54;18.12;70.06
75010;DHT22;63564;46.840;18.336;2022-10-14T10:32:10;18.40;70.01
75010;DHT22;63564;46.840;18.336;2022-10-14T10:38:27;18.81;70.71
75010;DHT22;63564;46.840;18.336;2022-10-14T10:41:41;18.71;67.59
75010;DHT22;63564;46.840;18.336;2022-10-14T10:51:37;18.98;67.13
75010;DHT22;63564;46.840;18.336;2022-10-14T11:02:00;19.33;65.76
75010;DHT22;63564;46.840;18.336;2022-10-14T11:08:57;19.33;65.66
75010;DHT22;63564;46.840;18.336;2022-10-14T11:12:41;19.50;63.49
75010;DHT22;63564;46.840;18.336;2022-10-14T11:19:20;19.34;63.83
75010;DHT22;63564;46.840;18.336;2022-10-14T11:26:11;19.06;67.67
75010;DHT22;63564;46.840;18.336;2022-10-14T11:32:31;19.08;67.16
75010;DHT22;63564;46.840;18.336;2022-10-14T11:45:48;19.65;60.56
75010;DHT22;63564;46.840;18.336;2022-10-14T11:48:54;19.70;62.27
75010;DHT22;63564;46.840;18.336;2022-10-14T11:52:01;20.05;60.38
75010;DHT22;63564;46.840;18.336;2022-10-14T11:55:11;20.22;64.22
75010;DHT22;63564;46.840;18.336;2022-10-14T11:58:16;20.01;60.24
75010;DHT22;63564;46.840;18.336;2022-10-14T12:01:24;19.71;61.08
75010;DHT22;63564;46.840;18.336;2022-10-14T12:04:33;19.51;63.23
75010;DHT22;63564;46.840;18.336;2022-10-14T12:11:02;20.13;59.53
75010;DHT22;63564;46.840;18.336;2022-10-14T12:17:28;19.88;60.87
75010;DHT22;63564;46.840;18.336;2022-10-14T12:26:45;19.85;60.85
75010;DHT22;63564;46.840;18.336;2022-10-14T12:29:50;19.95;62.37
75010;DHT22;63564;46.840;18.336;2022-10-14T12:33:05;20.08;61.53
75010;DHT22;63564;46.840;18.336;2022-10-14T12:36:29;20.63;57.49
75010;DHT22;63564;46.840;18.336;2022-10-14T12:39:32;21.14;54.88
75010;DHT22;63564;46.840;18.336;2022-10-14T12:42:35;21.42;53.42
75010;DHT22;63564;46.840;18.336;2022-10-14T12:45:46;21.41;53.01
75010;DHT22;63564;46.840;18.336;2022-10-14T12:48:50;21.42;55.29
75010;DHT22;63564;46.840;18.336;2022-10-14T12:51:58;21.16;52.99
75010;DHT22;63564;46.840;18.336;2022-10-14T12:55:01;20.97;54.21
75010;DHT22;63564;46.840;18.336;2022-10-14T12:58:20;20.42;53.86
75010;DHT22;63564;46.840;18.336;2022-10-14T13:01:22;20.43;56.66
75010;DHT22;63564;46.840;18.336;2022-10-14T13:04:22;20.30;56.98
75010;DHT22;63564;46.840;18.336;2022-10-14T13:07:29;20.66;53.93
75010;DHT22;63564;46.840;18.336;2022-10-14T13:19:42;20.43;56.05
75010;DHT22;63564;46.840;18.336;2022-10-14T13:22:43;20.44;54.49
75010;DHT22;63564;46.840;18.336;2022-10-14T13:25:45;20.32;56.21
75010;DHT22;63564;46.840;18.336;2022-10-14T13:35:56;20.12;55.87
75010;DHT22;63564;46.840;18.336;2022-10-14T13:38:59;19.99;56.20
75010;DHT22;63564;46.840;18.336;2022-10-14T13:42:01;19.98;56.90
75010;DHT22;63564;46.840;18.336;2022-10-14T13:45:12;19.85;57.88
75010;DHT22;63564;46.840;18.336;2022-10-14T13:48:17;19.85;57.95
75010;DHT22;63564;46.840;18.336;2022-10-14T13:54:31;19.54;58.17
75010;DHT22;63564;46.840;18.336;2022-10-14T13:57:31;19.49;57.47
75010;DHT22;63564;46.840;18.336;2022-10-14T14:00:34;19.24;58.73
75010;DHT22;63564;46.840;18.336;2022-10-14T14:03:37;19.08;59.87
75010;DHT22;63564;46.840;18.336;2022-10-14T14:06:42;18.99;63.52
75010;DHT22;63564;46.840;18.336;2022-10-14T14:09:50;19.18;59.63
75010;DHT22;63564;46.840;18.336;2022-10-14T14:12:51;19.15;59.84
75010;DHT22;63564;46.840;18.336;2022-10-14T14:15:53;18.95;60.80
75010;DHT22;63564;46.840;18.336;2022-10-14T14:18:53;18.81;60.51
75010;DHT22;63564;46.840;18.336;2022-10-14T14:25:26;18.72;60.73
75010;DHT22;63564;46.840;18.336;2022-10-14T14:28:30;18.55;61.34
75010;DHT22;63564;46.840;18.336;2022-10-14T14:31:32;18.76;60.61
75010;DHT22;63564;46.840;18.336;2022-10-14T14:34:33;18.87;59.38
75010;DHT22;63564;46.840;18.336;2022-10-14T14:37:34;18.94;59.40
75010;DHT22;63564;46.840;18.336;2022-10-14T14:40:35;19.00;58.81
75010;DHT22;63564;46.840;18.336;2022-10-14T14:43:35;19.19;58.35
75010;DHT22;63564;46.840;18.336;2022-10-14T14:46:37;19.08;59.30
75010;DHT22;63564;46.840;18.336;2022-10-14T14:49:38;19.00;58.93
75010;DHT22;63564;46.840;18.336;2022-10-14T14:52:40;18.84;59.23
75010;DHT22;63564;46.840;18.336;2022-10-14T14:56:02;18.87;58.98
75010;DHT22;63564;46.840;18.336;2022-10-14T14:59:33;18.89;58.63
75010;DHT22;63564;46.840;18.336;2022-10-14T15:02:34;18.67;59.90
75010;DHT22;63564;46.840;18.336;2022-10-14T15:05:35;18.44;60.55
75010;DHT22;63564;46.840;18.336;2022-10-14T15:08:35;18.36;61.11
75010;DHT22;63564;46.840;18.336;2022-10-14T15:11:48;18.18;61.38
75010;DHT22;63564;46.840;18.336;2022-10-14T15:14:57;18.16;61.81
75010;DHT22;63564;46.840;18.336;2022-10-14T15:18:14;18.06;63.13
75010;DHT22;63564;46.840;18.336;2022-10-14T15:21:18;17.95;63.36
75010;DHT22;63564;46.840;18.336;2022-10-14T15:24:19;17.83;63.67
75010;DHT22;63564;46.840;18.336;2022-10-14T15:33:37;17.59;65.56
75010;DHT22;63564;46.840;18.336;2022-10-14T15:36:38;17.49;65.42
75010;DHT22;63564;46.840;18.336;2022-10-14T15:39:38;17.40;65.98
75010;DHT22;63564;46.840;18.336;2022-10-14T15:42:39;17.41;66.55
75010;DHT22;63564;46.840;18.336;2022-10-14T15:45:41;17.07;68.56
75010;DHT22;63564;46.840;18.336;2022-10-14T15:48:51;16.92;68.51
75010;DHT22;63564;46.840;18.336;2022-10-14T15:51:53;16.69;68.80
75010;DHT22;63564;46.840;18.336;2022-10-14T15:54:56;16.54;69.08
75010;DHT22;63564;46.840;18.336;2022-10-14T15:57:57;16.44;70.69
75010;DHT22;63564;46.840;18.336;2022-10-14T16:00:59;16.34;70.73
75010;DHT22;63564;46.840;18.336;2022-10-14T16:04:00;16.18;71.65
75010;DHT22;63564;46.840;18.336;2022-10-14T16:07:02;16.04;71.21
75010;DHT22;63564;46.840;18.336;2022-10-14T16:10:03;15.89;72.60
75010;DHT22;63564;46.840;18.336;2022-10-14T16:13:04;15.79;72.57
75010;DHT22;63564;46.840;18.336;2022-10-14T16:16:07;15.66;71.74
75010;DHT22;63564;46.840;18.336;2022-10-14T16:19:09;15.65;71.74
75010;DHT22;63564;46.840;18.336;2022-10-14T16:22:09;15.66;72.61
75010;DHT22;63564;46.840;18.336;2022-10-14T16:25:18;15.65;72.57
75010;DHT22;63564;46.840;18.336;2022-10-14T16:28:19;15.60;72.38
75010;DHT22;63564;46.840;18.336;2022-10-14T16:31:20;15.51;72.46
75010;DHT22;63564;46.840;18.336;2022-10-14T16:34:21;15.45;72.99
75010;DHT22;63564;46.840;18.336;2022-10-14T16:37:22;15.45;73.30
75010;DHT22;63564;46.840;18.336;2022-10-14T16:40:23;15.41;73.70
75010;DHT22;63564;46.840;18.336;2022-10-14T16:43:24;15.36;73.18
75010;DHT22;63564;46.840;18.336;2022-10-14T16:46:25;15.22;73.34
75010;DHT22;63564;46.840;18.336;2022-10-14T16:49:47;15.20;73.77
75010;DHT22;63564;46.840;18.336;2022-10-14T16:52:48;15.20;74.10
75010;DHT22;63564;46.840;18.336;2022-10-14T16:56:25;15.18;73.81
75010;DHT22;63564;46.840;18.336;2022-10-14T16:59:44;15.10;74.07
75010;DHT22;63564;46.840;18.336;2022-10-14T17:02:45;15.08;73.96
75010;DHT22;63564;46.840;18.336;2022-10-14T17:05:45;15.08;74.29
75010;DHT22;63564;46.840;18.336;2022-10-14T17:08:46;15.07;74.29
75010;DHT22;63564;46.840;18.336;2022-10-14T17:11:47;14.98;75.67
75010;DHT22;63564;46.840;18.336;2022-10-14T17:14:48;14.97;74.61
75010;DHT22;63564;46.840;18.336;2022-10-14T17:17:51;14.90;76.35
75010;DHT22;63564;46.840;18.336;2022-10-14T17:21:05;14.72;76.34
75010;DHT22;63564;46.840;18.336;2022-10-14T17:24:11;14.46;76.94
75010;DHT22;63564;46.840;18.336;2022-10-14T17:27:12;14.35;76.66
75010;DHT22;63564;46.840;18.336;2022-10-14T17:30:12;14.28;77.00
75010;DHT22;63564;46.840;18.336;2022-10-14T17:33:12;14.17;78.38
75010;DHT22;63564;46.840;18.336;2022-10-14T17:36:22;14.00;79.70
75010;DHT22;63564;46.840;18.336;2022-10-14T17:39:23;14.01;78.99
75010;DHT22;63564;46.840;18.336;2022-10-14T17:42:24;14.01;78.86
75010;DHT22;63564;46.840;18.336;2022-10-14T17:45:26;13.91;79.60
75010;DHT22;63564;46.840;18.336;2022-10-14T17:48:26;13.84;79.67
75010;DHT22;63564;46.840;18.336;2022-10-14T17:51:27;13.80;79.61
75010;DHT22;63564;46.840;18.336;2022-10-14T17:54:28;13.94;78.01
75010;DHT22;63564;46.840;18.336;2022-10-14T17:57:31;14.05;76.92
75010;DHT22;63564;46.840;18.336;2022-10-14T18:00:32;14.02;77.41
75010;DHT22;63564;46.840;18.336;2022-10-14T18:03:33;14.02;77.67
75010;DHT22;63564;46.840;18.336;2022-10-14T18:06:34;14.07;76.78
75010;DHT22;63564;46.840;18.336;2022-10-14T18:09:35;14.08;77.07
75010;DHT22;63564;46.840;18.336;2022-10-14T18:12:35;14.19;75.34
75010;DHT22;63564;46.840;18.336;2022-10-14T18:15:35;14.25;75.56
75010;DHT22;63564;46.840;18.336;2022-10-14T18:18:37;14.29;75.92
75010;DHT22;63564;46.840;18.336;2022-10-14T18:21:38;14.40;75.10
75010;DHT22;63564;46.840;18.336;2022-10-14T18:24:39;14.43;75.08
75010;DHT22;63564;46.840;18.336;2022-10-14T18:27:40;14.46;74.76
75010;DHT22;63564;46.840;18.336;2022-10-14T18:30:41;14.55;73.84
75010;DHT22;63564;46.840;18.336;2022-10-14T18:33:43;14.53;74.25
75010;DHT22;63564;46.840;18.336;2022-10-14T18:36:43;14.57;73.53
75010;DHT22;63564;46.840;18.336;2022-10-14T18:39:44;14.57;73.59
75010;DHT22;63564;46.840;18.336;2022-10-14T18:42:44;14.75;73.15
75010;DHT22;63564;46.840;18.336;2022-10-14T18:45:44;14.67;73.49
75010;DHT22;63564;46.840;18.336;2022-10-14T18:48:47;14.53;73.54
75010;DHT22;63564;46.840;18.336;2022-10-14T18:51:48;14.33;75.46
75010;DHT22;63564;46.840;18.336;2022-10-14T18:54:48;14.24;74.99
75010;DHT22;63564;46.840;18.336;2022-10-14T18:57:48;14.15;75.30
75010;DHT22;63564;46.840;18.336;2022-10-14T19:00:49;14.14;75.07
75010;DHT22;63564;46.840;18.336;2022-10-14T19:03:51;14.18;75.23
75010;DHT22;63564;46.840;18.336;2022-10-14T19:06:52;14.12;75.88
75010;DHT22;63564;46.840;18.336;2022-10-14T19:09:52;14.00;75.78
75010;DHT22;63564;46.840;18.336;2022-10-14T19:12:52;13.85;77.61
75010;DHT22;63564;46.840;18.336;2022-10-14T19:16:00;13.67;79.24
75010;DHT22;63564;46.840;18.336;2022-10-14T19:19:06;13.69;78.58
75010;DHT22;63564;46.840;18.336;2022-10-14T19:22:10;13.71;78.30
75010;DHT22;63564;46.840;18.336;2022-10-14T19:25:10;13.70;78.82
75010;DHT22;63564;46.840;18.336;2022-10-14T19:28:11;13.87;78.23
75010;DHT22;63564;46.840;18.336;2022-10-14T19:31:14;14.02;77.62
75010;DHT22;63564;46.840;18.336;2022-10-14T19:34:15;13.92;77.73
75010;DHT22;63564;46.840;18.336;2022-10-14T19:37:15;13.77;78.24
75010;DHT22;63564;46.840;18.336;2022-10-14T19:40:15;13.71;78.31
75010;DHT22;63564;46.840;18.336;2022-10-14T19:43:16;13.85;78.04
75010;DHT22;63564;46.840;18.336;2022-10-14T19:46:16;13.77;78.18
75010;DHT22;63564;46.840;18.336;2022-10-14T19:49:17;13.70;78.13
75010;DHT22;63564;46.840;18.336;2022-10-14T19:52:17;13.66;78.51
75010;DHT22;63564;46.840;18.336;2022-10-14T19:55:18;13.57;79.87
75010;DHT22;63564;46.840;18.336;2022-10-14T19:58:18;13.54;79.12
75010;DHT22;63564;46.840;18.336;2022-10-14T20:01:20;13.54;79.19
75010;DHT22;63564;46.840;18.336;2022-10-14T20:04:22;13.62;79.00
75010;DHT22;63564;46.840;18.336;2022-10-14T20:07:23;13.56;78.45
75010;DHT22;63564;46.840;18.336;2022-10-14T20:10:24;13.47;77.88
75010;DHT22;63564;46.840;18.336;2022-10-14T20:13:24;13.36;79.41
75010;DHT22;63564;46.840;18.336;2022-10-14T20:16:25;13.29;79.21
75010;DHT22;63564;46.840;18.336;2022-10-14T20:19:26;12.95;81.69
75010;DHT22;63564;46.840;18.336;2022-10-14T20:22:26;12.70;83.06
75010;DHT22;63564;46.840;18.336;2022-10-14T20:25:26;12.44;83.80
75010;DHT22;63564;46.840;18.336;2022-10-14T20:28:27;12.50;82.66
75010;DHT22;63564;46.840;18.336;2022-10-14T20:31:27;12.56;82.12
75010;DHT22;63564;46.840;18.336;2022-10-14T20:34:28;12.63;81.06
75010;DHT22;63564;46.840;18.336;2022-10-14T20:37:29;12.63;81.24
75010;DHT22;63564;46.840;18.336;2022-10-14T20:40:33;12.63;81.71
75010;DHT22;63564;46.840;18.336;2022-10-14T20:43:34;12.64;80.17
75010;DHT22;63564;46.840;18.336;2022-10-14T20:46:34;12.65;79.92
75010;DHT22;63564;46.840;18.336;2022-10-14T20:49:34;12.67;81.00
75010;DHT22;63564;46.840;18.336;2022-10-14T20:52:35;12.61;81.10
75010;DHT22;63564;46.840;18.336;2022-10-14T20:55:35;12.64;80.76
75010;DHT22;63564;46.840;18.336;2022-10-14T20:58:36;12.61;80.44
75010;DHT22;63564;46.840;18.336;2022-10-14T21:01:36;12.54;81.55
75010;DHT22;63564;46.840;18.336;2022-10-14T21:04:36;12.59;80.63